Terminal Aerodrome Forecast
Issued by NWS Cleveland, OH

Home | Current Version | Previous Version | Text Only | Print | Product List | Glossary Off
Versions: 1 2 3 4 5 6 7 8 9 10 11 12 13 14 15 16

000
FTUS41 KCLE 291730
TAFYNG
TAF
KYNG 291730Z 2918/3018 22006KT P6SM SCT050 BKN150
     FM300200 VRB04KT P6SM VCSH BKN045 OVC090
     FM300800 19003KT 4SM BR VCSH BKN040 OVC080
     FM301500 21005KT 6SM HZ VCSH BKN040=

USA.gov is the U.S. government's official web portal to all federal, state and local government web resources and services.